sensor_id;sensor_type;location;lat;lon;timestamp;temperature;humidity
44731;DHT22;30458;47.448;19.032;2022-09-23T00:04:55;10.60;98.80
44731;DHT22;30458;47.448;19.032;2022-09-23T00:14:59;10.50;99.00
44731;DHT22;30458;47.448;19.032;2022-09-23T00:24:59;10.20;99.40
44731;DHT22;30458;47.448;19.032;2022-09-23T00:35:00;10.20;99.50
44731;DHT22;30458;47.448;19.032;2022-09-23T00:45:08;9.80;99.90
44731;DHT22;30458;47.448;19.032;2022-09-23T00:55:15;9.60;99.90
44731;DHT22;30458;47.448;19.032;2022-09-23T01:05:17;9.50;99.90
44731;DHT22;30458;47.448;19.032;2022-09-23T01:15:31;9.50;99.90
44731;DHT22;30458;47.448;19.032;2022-09-23T01:46:00;9.60;99.90
44731;DHT22;30458;47.448;19.032;2022-09-23T01:56:16;9.70;99.90
44731;DHT22;30458;47.448;19.032;2022-09-23T02:06:32;9.60;99.90
44731;DHT22;30458;47.448;19.032;2022-09-23T02:16:35;9.50;99.90
44731;DHT22;30458;47.448;19.032;2022-09-23T02:26:54;9.40;99.90
44731;DHT22;30458;47.448;19.032;2022-09-23T02:37:09;9.30;99.90
44731;DHT22;30458;47.448;19.032;2022-09-23T02:47:13;9.10;99.90
44731;DHT22;30458;47.448;19.032;2022-09-23T02:57:14;9.20;99.90
44731;DHT22;30458;47.448;19.032;2022-09-23T03:07:20;9.10;99.90
44731;DHT22;30458;47.448;19.032;2022-09-23T03:17:48;8.80;99.90
44731;DHT22;30458;47.448;19.032;2022-09-23T03:27:55;8.80;99.90
44731;DHT22;30458;47.448;19.032;2022-09-23T03:38:15;8.40;99.90
44731;DHT22;30458;47.448;19.032;2022-09-23T03:48:18;8.40;99.90
44731;DHT22;30458;47.448;19.032;2022-09-23T03:58:24;8.40;99.90
44731;DHT22;30458;47.448;19.032;2022-09-23T04:08:27;8.30;99.90
44731;DHT22;30458;47.448;19.032;2022-09-23T04:18:27;8.30;99.90
44731;DHT22;30458;47.448;19.032;2022-09-23T04:28:28;8.20;99.90
44731;DHT22;30458;47.448;19.032;2022-09-23T04:38:29;8.40;99.90
44731;DHT22;30458;47.448;19.032;2022-09-23T04:48:30;8.30;99.90
44731;DHT22;30458;47.448;19.032;2022-09-23T04:58:33;8.60;99.90
44731;DHT22;30458;47.448;19.032;2022-09-23T05:08:39;9.30;99.90
44731;DHT22;30458;47.448;19.032;2022-09-23T05:18:41;10.10;99.60
44731;DHT22;30458;47.448;19.032;2022-09-23T05:28:43;11.10;98.30
44731;DHT22;30458;47.448;19.032;2022-09-23T05:38:44;11.50;97.40
44731;DHT22;30458;47.448;19.032;2022-09-23T05:48:47;12.00;96.90
44731;DHT22;30458;47.448;19.032;2022-09-23T05:58:55;13.30;95.70
44731;DHT22;30458;47.448;19.032;2022-09-23T06:09:02;14.40;94.80
44731;DHT22;30458;47.448;19.032;2022-09-23T06:19:03;15.90;93.10
44731;DHT22;30458;47.448;19.032;2022-09-23T06:29:10;17.20;91.60
44731;DHT22;30458;47.448;19.032;2022-09-23T06:39:15;18.20;90.90
44731;DHT22;30458;47.448;19.032;2022-09-23T06:49:18;19.60;88.80
44731;DHT22;30458;47.448;19.032;2022-09-23T06:59:23;20.40;86.50
44731;DHT22;30458;47.448;19.032;2022-09-23T07:09:24;21.40;83.60
44731;DHT22;30458;47.448;19.032;2022-09-23T07:19:25;22.90;80.90
44731;DHT22;30458;47.448;19.032;2022-09-23T07:29:26;24.00;76.10
44731;DHT22;30458;47.448;19.032;2022-09-23T07:39:27;24.40;73.70
44731;DHT22;30458;47.448;19.032;2022-09-23T07:49:27;25.00;72.30
44731;DHT22;30458;47.448;19.032;2022-09-23T07:59:28;25.90;70.50
44731;DHT22;30458;47.448;19.032;2022-09-23T08:09:39;25.10;69.70
44731;DHT22;30458;47.448;19.032;2022-09-23T08:19:41;24.20;71.00
44731;DHT22;30458;47.448;19.032;2022-09-23T08:29:41;24.10;71.80
44731;DHT22;30458;47.448;19.032;2022-09-23T08:39:42;23.70;73.10
44731;DHT22;30458;47.448;19.032;2022-09-23T08:50:13;23.80;72.60
44731;DHT22;30458;47.448;19.032;2022-09-23T09:00:20;23.00;74.60
44731;DHT22;30458;47.448;19.032;2022-09-23T09:10:25;22.10;77.20
44731;DHT22;30458;47.448;19.032;2022-09-23T09:41:23;20.20;80.40
44731;DHT22;30458;47.448;19.032;2022-09-23T09:51:27;18.70;85.30
44731;DHT22;30458;47.448;19.032;2022-09-23T10:01:31;18.60;86.40
44731;DHT22;30458;47.448;19.032;2022-09-23T10:11:32;18.60;86.20
44731;DHT22;30458;47.448;19.032;2022-09-23T10:21:35;18.20;87.70
44731;DHT22;30458;47.448;19.032;2022-09-23T10:31:38;17.90;88.60
44731;DHT22;30458;47.448;19.032;2022-09-23T10:41:47;18.00;90.40
44731;DHT22;30458;47.448;19.032;2022-09-23T10:52:22;18.00;86.90
44731;DHT22;30458;47.448;19.032;2022-09-23T11:13:15;17.80;89.50
44731;DHT22;30458;47.448;19.032;2022-09-23T11:33:36;18.10;84.90
44731;DHT22;30458;47.448;19.032;2022-09-23T11:43:47;18.00;87.30
44731;DHT22;30458;47.448;19.032;2022-09-23T11:53:52;18.00;87.60
44731;DHT22;30458;47.448;19.032;2022-09-23T12:04:11;18.20;88.30
44731;DHT22;30458;47.448;19.032;2022-09-23T12:14:29;18.20;84.30
44731;DHT22;30458;47.448;19.032;2022-09-23T12:24:58;17.60;85.50
44731;DHT22;30458;47.448;19.032;2022-09-23T12:35:04;17.80;85.20
44731;DHT22;30458;47.448;19.032;2022-09-23T13:05:49;18.00;84.90
44731;DHT22;30458;47.448;19.032;2022-09-23T13:16:19;18.00;81.60
44731;DHT22;30458;47.448;19.032;2022-09-23T13:26:22;18.00;78.70
44731;DHT22;30458;47.448;19.032;2022-09-23T13:36:22;17.90;80.40
44731;DHT22;30458;47.448;19.032;2022-09-23T13:46:36;18.10;82.90
44731;DHT22;30458;47.448;19.032;2022-09-23T13:56:47;18.10;78.80
44731;DHT22;30458;47.448;19.032;2022-09-23T14:06:48;17.90;80.70
44731;DHT22;30458;47.448;19.032;2022-09-23T14:16:56;17.90;81.30
44731;DHT22;30458;47.448;19.032;2022-09-23T14:27:12;17.90;80.70
44731;DHT22;30458;47.448;19.032;2022-09-23T14:47:37;17.90;80.80
44731;DHT22;30458;47.448;19.032;2022-09-23T14:57:44;17.90;80.70
44731;DHT22;30458;47.448;19.032;2022-09-23T15:07:51;18.00;80.60
44731;DHT22;30458;47.448;19.032;2022-09-23T15:17:52;18.20;81.00
44731;DHT22;30458;47.448;19.032;2022-09-23T15:38:08;18.10;80.50
44731;DHT22;30458;47.448;19.032;2022-09-23T15:48:14;18.00;80.20
44731;DHT22;30458;47.448;19.032;2022-09-23T15:58:21;17.80;81.20
44731;DHT22;30458;47.448;19.032;2022-09-23T16:08:23;17.80;80.80
44731;DHT22;30458;47.448;19.032;2022-09-23T16:18:23;17.60;82.70
44731;DHT22;30458;47.448;19.032;2022-09-23T16:28:24;17.60;84.00
44731;DHT22;30458;47.448;19.032;2022-09-23T16:38:25;17.50;86.60
44731;DHT22;30458;47.448;19.032;2022-09-23T16:48:26;17.30;87.80
44731;DHT22;30458;47.448;19.032;2022-09-23T16:58:32;17.00;89.20
44731;DHT22;30458;47.448;19.032;2022-09-23T17:08:33;16.80;90.10
44731;DHT22;30458;47.448;19.032;2022-09-23T17:18:36;16.50;90.20
44731;DHT22;30458;47.448;19.032;2022-09-23T17:28:38;16.30;91.10
44731;DHT22;30458;47.448;19.032;2022-09-23T17:38:42;16.00;91.60
44731;DHT22;30458;47.448;19.032;2022-09-23T17:48:45;15.70;92.20
44731;DHT22;30458;47.448;19.032;2022-09-23T17:58:48;15.50;92.80
44731;DHT22;30458;47.448;19.032;2022-09-23T18:08:51;15.30;92.80
44731;DHT22;30458;47.448;19.032;2022-09-23T18:18:57;15.00;93.20
44731;DHT22;30458;47.448;19.032;2022-09-23T18:29:00;14.80;93.40
44731;DHT22;30458;47.448;19.032;2022-09-23T18:39:03;14.50;94.10
44731;DHT22;30458;47.448;19.032;2022-09-23T18:49:04;14.30;94.50
44731;DHT22;30458;47.448;19.032;2022-09-23T18:59:40;14.00;95.20
44731;DHT22;30458;47.448;19.032;2022-09-23T19:09:43;13.70;95.80
44731;DHT22;30458;47.448;19.032;2022-09-23T19:19:49;13.60;95.80
44731;DHT22;30458;47.448;19.032;2022-09-23T19:29:50;13.30;96.30
44731;DHT22;30458;47.448;19.032;2022-09-23T19:39:51;13.10;96.60
44731;DHT22;30458;47.448;19.032;2022-09-23T19:49:51;12.60;97.70
44731;DHT22;30458;47.448;19.032;2022-09-23T19:59:52;12.70;97.40
44731;DHT22;30458;47.448;19.032;2022-09-23T20:09:58;12.60;97.30
44731;DHT22;30458;47.448;19.032;2022-09-23T20:19:59;12.40;97.40
44731;DHT22;30458;47.448;19.032;2022-09-23T20:30:00;12.20;97.80
44731;DHT22;30458;47.448;19.032;2022-09-23T20:40:05;12.10;97.20
44731;DHT22;30458;47.448;19.032;2022-09-23T20:50:10;11.80;97.70
44731;DHT22;30458;47.448;19.032;2022-09-23T21:00:16;11.90;97.40
44731;DHT22;30458;47.448;19.032;2022-09-23T21:10:20;11.70;97.40
44731;DHT22;30458;47.448;19.032;2022-09-23T21:20:22;11.70;97.30
44731;DHT22;30458;47.448;19.032;2022-09-23T21:30:25;11.40;97.40
44731;DHT22;30458;47.448;19.032;2022-09-23T21:40:28;11.20;97.60
44731;DHT22;30458;47.448;19.032;2022-09-23T21:51:02;11.00;97.90
44731;DHT22;30458;47.448;19.032;2022-09-23T22:11:20;10.80;97.80
44731;DHT22;30458;47.448;19.032;2022-09-23T22:21:43;10.40;98.30
44731;DHT22;30458;47.448;19.032;2022-09-23T22:31:44;10.10;98.90
44731;DHT22;30458;47.448;19.032;2022-09-23T22:42:04;9.80;99.90
44731;DHT22;30458;47.448;19.032;2022-09-23T22:52:07;9.90;99.50
44731;DHT22;30458;47.448;19.032;2022-09-23T23:02:08;9.90;99.40
44731;DHT22;30458;47.448;19.032;2022-09-23T23:12:09;9.60;99.70
44731;DHT22;30458;47.448;19.032;2022-09-23T23:22:09;9.70;99.50
44731;DHT22;30458;47.448;19.032;2022-09-23T23:32:10;9.90;99.10
44731;DHT22;30458;47.448;19.032;2022-09-23T23:42:14;9.90;98.80
44731;DHT22;30458;47.448;19.032;2022-09-23T23:52:20;10.00;98.60
